sensor_id;sensor_type;location;lat;lon;timestamp;temperature;humidity
15259;DHT22;34462;51.368;12.364;2024-03-06T00:00:32;5.20;99.90
15259;DHT22;34462;51.368;12.364;2024-03-06T00:03:01;5.20;99.90
15259;DHT22;34462;51.368;12.364;2024-03-06T00:05:30;5.20;99.90
15259;DHT22;34462;51.368;12.364;2024-03-06T00:07:58;5.20;99.90
15259;DHT22;34462;51.368;12.364;2024-03-06T00:10:27;5.20;99.90
15259;DHT22;34462;51.368;12.364;2024-03-06T00:12:57;5.20;99.90
15259;DHT22;34462;51.368;12.364;2024-03-06T00:15:25;5.30;99.90
15259;DHT22;34462;51.368;12.364;2024-03-06T00:17:54;5.30;99.90
15259;DHT22;34462;51.368;12.364;2024-03-06T00:20:22;5.30;99.90
15259;DHT22;34462;51.368;12.364;2024-03-06T00:22:50;5.20;99.90
15259;DHT22;34462;51.368;12.364;2024-03-06T00:25:19;5.20;99.90
15259;DHT22;34462;51.368;12.364;2024-03-06T00:27:47;5.20;99.90
15259;DHT22;34462;51.368;12.364;2024-03-06T00:30:17;5.20;99.90
15259;DHT22;34462;51.368;12.364;2024-03-06T00:32:45;5.10;99.90
15259;DHT22;34462;51.368;12.364;2024-03-06T00:35:13;5.20;99.90
15259;DHT22;34462;51.368;12.364;2024-03-06T00:37:41;5.10;99.90
15259;DHT22;34462;51.368;12.364;2024-03-06T00:40:11;5.00;99.90
15259;DHT22;34462;51.368;12.364;2024-03-06T00:42:40;4.80;99.90
15259;DHT22;34462;51.368;12.364;2024-03-06T00:45:09;4.70;99.90
15259;DHT22;34462;51.368;12.364;2024-03-06T00:47:39;4.60;99.90
15259;DHT22;34462;51.368;12.364;2024-03-06T00:50:07;4.50;99.90
15259;DHT22;34462;51.368;12.364;2024-03-06T00:52:36;4.40;99.90
15259;DHT22;34462;51.368;12.364;2024-03-06T00:55:05;4.40;99.90
15259;DHT22;34462;51.368;12.364;2024-03-06T00:57:34;4.10;99.90
15259;DHT22;34462;51.368;12.364;2024-03-06T01:00:02;4.20;99.90
15259;DHT22;34462;51.368;12.364;2024-03-06T01:02:38;4.20;99.90
15259;DHT22;34462;51.368;12.364;2024-03-06T01:05:08;4.20;99.90
15259;DHT22;34462;51.368;12.364;2024-03-06T01:07:38;4.20;99.90
15259;DHT22;34462;51.368;12.364;2024-03-06T01:22:36;4.20;99.90
15259;DHT22;34462;51.368;12.364;2024-03-06T01:25:07;4.20;99.90
15259;DHT22;34462;51.368;12.364;2024-03-06T01:27:35;4.10;99.90
15259;DHT22;34462;51.368;12.364;2024-03-06T01:30:04;4.00;99.90
15259;DHT22;34462;51.368;12.364;2024-03-06T01:32:33;3.90;99.90
15259;DHT22;34462;51.368;12.364;2024-03-06T01:35:04;3.80;99.90
15259;DHT22;34462;51.368;12.364;2024-03-06T01:37:34;3.80;99.90
15259;DHT22;34462;51.368;12.364;2024-03-06T01:40:02;3.80;99.90
15259;DHT22;34462;51.368;12.364;2024-03-06T01:42:31;3.80;99.90
15259;DHT22;34462;51.368;12.364;2024-03-06T01:45:00;3.70;99.90
15259;DHT22;34462;51.368;12.364;2024-03-06T01:47:29;3.60;99.90
15259;DHT22;34462;51.368;12.364;2024-03-06T01:49:58;3.70;99.90
15259;DHT22;34462;51.368;12.364;2024-03-06T01:52:28;3.70;99.90
15259;DHT22;34462;51.368;12.364;2024-03-06T01:54:57;3.70;99.90
15259;DHT22;34462;51.368;12.364;2024-03-06T01:57:26;3.50;99.90
15259;DHT22;34462;51.368;12.364;2024-03-06T01:59:54;3.60;99.90
15259;DHT22;34462;51.368;12.364;2024-03-06T02:02:22;3.50;99.90
15259;DHT22;34462;51.368;12.364;2024-03-06T02:04:53;3.50;99.90
15259;DHT22;34462;51.368;12.364;2024-03-06T02:07:21;3.60;99.90
15259;DHT22;34462;51.368;12.364;2024-03-06T02:09:53;3.60;99.90
15259;DHT22;34462;51.368;12.364;2024-03-06T02:12:21;3.50;99.90
15259;DHT22;34462;51.368;12.364;2024-03-06T02:14:49;3.40;99.90
15259;DHT22;34462;51.368;12.364;2024-03-06T02:17:18;3.50;99.90
15259;DHT22;34462;51.368;12.364;2024-03-06T02:19:46;3.50;99.90
15259;DHT22;34462;51.368;12.364;2024-03-06T02:22:16;3.50;99.90
15259;DHT22;34462;51.368;12.364;2024-03-06T02:24:47;3.40;99.90
15259;DHT22;34462;51.368;12.364;2024-03-06T02:27:16;3.40;99.90
15259;DHT22;34462;51.368;12.364;2024-03-06T02:29:45;3.30;99.90
15259;DHT22;34462;51.368;12.364;2024-03-06T02:32:13;3.30;99.90
15259;DHT22;34462;51.368;12.364;2024-03-06T02:34:42;3.30;99.90
15259;DHT22;34462;51.368;12.364;2024-03-06T02:37:11;3.20;99.90
15259;DHT22;34462;51.368;12.364;2024-03-06T02:39:40;3.20;99.90
15259;DHT22;34462;51.368;12.364;2024-03-06T02:42:09;3.30;99.90
15259;DHT22;34462;51.368;12.364;2024-03-06T02:47:05;3.20;99.90
15259;DHT22;34462;51.368;12.364;2024-03-06T02:54:34;3.30;99.90
15259;DHT22;34462;51.368;12.364;2024-03-06T03:07:00;3.20;99.90
15259;DHT22;34462;51.368;12.364;2024-03-06T03:09:28;3.10;99.90
15259;DHT22;34462;51.368;12.364;2024-03-06T03:11:56;3.00;99.90
15259;DHT22;34462;51.368;12.364;2024-03-06T03:14:27;2.90;99.90
15259;DHT22;34462;51.368;12.364;2024-03-06T03:16:55;2.90;99.90
15259;DHT22;34462;51.368;12.364;2024-03-06T03:19:23;2.70;99.90
15259;DHT22;34462;51.368;12.364;2024-03-06T03:21:51;2.70;99.90
15259;DHT22;34462;51.368;12.364;2024-03-06T03:24:20;2.80;99.90
15259;DHT22;34462;51.368;12.364;2024-03-06T03:26:48;2.90;99.90
15259;DHT22;34462;51.368;12.364;2024-03-06T03:29:17;3.00;99.90
15259;DHT22;34462;51.368;12.364;2024-03-06T03:31:47;2.90;99.90
15259;DHT22;34462;51.368;12.364;2024-03-06T03:34:15;2.80;99.90
15259;DHT22;34462;51.368;12.364;2024-03-06T03:39:12;2.80;99.90
15259;DHT22;34462;51.368;12.364;2024-03-06T03:41:43;2.80;99.90
15259;DHT22;34462;51.368;12.364;2024-03-06T03:46:43;2.70;99.90
15259;DHT22;34462;51.368;12.364;2024-03-06T03:49:13;2.60;99.90
15259;DHT22;34462;51.368;12.364;2024-03-06T03:51:41;2.60;99.90
15259;DHT22;34462;51.368;12.364;2024-03-06T03:54:09;2.50;99.90
15259;DHT22;34462;51.368;12.364;2024-03-06T03:56:38;2.50;99.90
15259;DHT22;34462;51.368;12.364;2024-03-06T03:59:06;2.50;99.90
15259;DHT22;34462;51.368;12.364;2024-03-06T04:01:35;2.40;99.90
15259;DHT22;34462;51.368;12.364;2024-03-06T04:04:03;2.40;99.90
15259;DHT22;34462;51.368;12.364;2024-03-06T04:06:35;2.40;99.90
15259;DHT22;34462;51.368;12.364;2024-03-06T04:09:03;2.40;99.90
15259;DHT22;34462;51.368;12.364;2024-03-06T04:11:32;2.40;99.90
15259;DHT22;34462;51.368;12.364;2024-03-06T04:14:02;2.40;99.90
15259;DHT22;34462;51.368;12.364;2024-03-06T04:16:31;2.40;99.90
15259;DHT22;34462;51.368;12.364;2024-03-06T04:19:00;2.50;99.90
15259;DHT22;34462;51.368;12.364;2024-03-06T04:21:28;2.40;99.90
15259;DHT22;34462;51.368;12.364;2024-03-06T04:23:58;2.50;99.90
15259;DHT22;34462;51.368;12.364;2024-03-06T04:26:26;2.50;99.90
15259;DHT22;34462;51.368;12.364;2024-03-06T04:28:54;2.40;99.90
15259;DHT22;34462;51.368;12.364;2024-03-06T04:31:23;2.40;99.90
15259;DHT22;34462;51.368;12.364;2024-03-06T04:33:51;2.30;99.90
15259;DHT22;34462;51.368;12.364;2024-03-06T04:36:20;2.40;99.90
15259;DHT22;34462;51.368;12.364;2024-03-06T04:38:48;2.40;99.90
15259;DHT22;34462;51.368;12.364;2024-03-06T04:41:19;2.30;99.90
15259;DHT22;34462;51.368;12.364;2024-03-06T04:43:47;2.30;99.90
15259;DHT22;34462;51.368;12.364;2024-03-06T04:46:17;2.20;99.90
15259;DHT22;34462;51.368;12.364;2024-03-06T04:48:46;2.20;99.90
15259;DHT22;34462;51.368;12.364;2024-03-06T05:01:18;2.20;99.90
15259;DHT22;34462;51.368;12.364;2024-03-06T05:03:46;2.20;99.90
15259;DHT22;34462;51.368;12.364;2024-03-06T05:06:33;2.20;99.90
15259;DHT22;34462;51.368;12.364;2024-03-06T05:09:19;2.10;99.90
15259;DHT22;34462;51.368;12.364;2024-03-06T05:12:07;2.10;99.90
15259;DHT22;34462;51.368;12.364;2024-03-06T05:14:54;2.00;99.90
15259;DHT22;34462;51.368;12.364;2024-03-06T05:17:41;2.00;99.90
15259;DHT22;34462;51.368;12.364;2024-03-06T05:20:28;1.90;99.90
15259;DHT22;34462;51.368;12.364;2024-03-06T05:23:15;1.90;99.90
15259;DHT22;34462;51.368;12.364;2024-03-06T05:26:01;1.90;99.90
15259;DHT22;34462;51.368;12.364;2024-03-06T05:28:49;2.00;99.90
15259;DHT22;34462;51.368;12.364;2024-03-06T05:31:34;2.00;99.90
15259;DHT22;34462;51.368;12.364;2024-03-06T05:34:20;1.90;99.90
15259;DHT22;34462;51.368;12.364;2024-03-06T05:37:06;1.90;99.90
15259;DHT22;34462;51.368;12.364;2024-03-06T05:39:51;1.90;99.90
15259;DHT22;34462;51.368;12.364;2024-03-06T05:42:38;1.90;99.90
15259;DHT22;34462;51.368;12.364;2024-03-06T05:45:25;1.90;99.90
15259;DHT22;34462;51.368;12.364;2024-03-06T05:48:11;1.90;99.90
15259;DHT22;34462;51.368;12.364;2024-03-06T05:50:57;1.90;99.90
15259;DHT22;34462;51.368;12.364;2024-03-06T05:53:42;1.90;99.90
15259;DHT22;34462;51.368;12.364;2024-03-06T05:56:28;1.90;99.90
15259;DHT22;34462;51.368;12.364;2024-03-06T05:59:14;1.80;99.90
15259;DHT22;34462;51.368;12.364;2024-03-06T06:01:44;1.90;99.90
15259;DHT22;34462;51.368;12.364;2024-03-06T06:04:13;1.80;99.90
15259;DHT22;34462;51.368;12.364;2024-03-06T06:06:41;1.80;99.90
15259;DHT22;34462;51.368;12.364;2024-03-06T06:09:10;1.90;99.90
15259;DHT22;34462;51.368;12.364;2024-03-06T06:11:43;1.90;99.90
15259;DHT22;34462;51.368;12.364;2024-03-06T06:14:11;2.00;99.90
15259;DHT22;34462;51.368;12.364;2024-03-06T06:16:41;2.00;99.90
15259;DHT22;34462;51.368;12.364;2024-03-06T06:19:12;2.00;99.90
15259;DHT22;34462;51.368;12.364;2024-03-06T06:21:40;2.00;99.90
15259;DHT22;34462;51.368;12.364;2024-03-06T06:24:08;2.00;99.90
15259;DHT22;34462;51.368;12.364;2024-03-06T06:26:36;2.00;99.90
15259;DHT22;34462;51.368;12.364;2024-03-06T06:29:05;2.10;99.90
15259;DHT22;34462;51.368;12.364;2024-03-06T06:31:35;2.20;99.90
15259;DHT22;34462;51.368;12.364;2024-03-06T06:34:03;2.30;99.90
15259;DHT22;34462;51.368;12.364;2024-03-06T06:36:33;2.20;99.90
15259;DHT22;34462;51.368;12.364;2024-03-06T06:39:01;2.20;99.90
15259;DHT22;34462;51.368;12.364;2024-03-06T06:41:32;2.20;99.90
15259;DHT22;34462;51.368;12.364;2024-03-06T06:44:01;2.10;99.90
15259;DHT22;34462;51.368;12.364;2024-03-06T06:46:30;2.10;99.90
15259;DHT22;34462;51.368;12.364;2024-03-06T06:48:58;2.20;99.90
15259;DHT22;34462;51.368;12.364;2024-03-06T06:51:30;2.30;99.90
15259;DHT22;34462;51.368;12.364;2024-03-06T06:53:59;2.30;99.90
15259;DHT22;34462;51.368;12.364;2024-03-06T06:56:27;2.40;99.90
15259;DHT22;34462;51.368;12.364;2024-03-06T06:58:56;2.40;99.90
15259;DHT22;34462;51.368;12.364;2024-03-06T07:01:24;2.50;99.90
15259;DHT22;34462;51.368;12.364;2024-03-06T07:03:54;2.60;99.90
15259;DHT22;34462;51.368;12.364;2024-03-06T07:06:22;2.70;99.90
15259;DHT22;34462;51.368;12.364;2024-03-06T07:08:51;2.70;99.90
15259;DHT22;34462;51.368;12.364;2024-03-06T07:11:20;2.90;99.90
15259;DHT22;34462;51.368;12.364;2024-03-06T07:13:49;2.90;99.90
15259;DHT22;34462;51.368;12.364;2024-03-06T07:16:18;3.10;99.90
15259;DHT22;34462;51.368;12.364;2024-03-06T07:18:46;3.20;99.90
15259;DHT22;34462;51.368;12.364;2024-03-06T07:21:15;3.20;99.90
15259;DHT22;34462;51.368;12.364;2024-03-06T07:23:45;3.30;99.90
15259;DHT22;34462;51.368;12.364;2024-03-06T07:26:13;3.30;99.90
15259;DHT22;34462;51.368;12.364;2024-03-06T07:28:43;3.50;99.90
15259;DHT22;34462;51.368;12.364;2024-03-06T07:31:12;3.50;99.90
15259;DHT22;34462;51.368;12.364;2024-03-06T07:33:40;3.60;99.90
15259;DHT22;34462;51.368;12.364;2024-03-06T07:36:09;3.70;99.90
15259;DHT22;34462;51.368;12.364;2024-03-06T07:38:37;3.70;99.90
15259;DHT22;34462;51.368;12.364;2024-03-06T07:41:06;3.80;99.90
15259;DHT22;34462;51.368;12.364;2024-03-06T07:43:34;3.90;99.90
15259;DHT22;34462;51.368;12.364;2024-03-06T07:46:04;3.90;99.90
15259;DHT22;34462;51.368;12.364;2024-03-06T07:48:37;4.10;99.90
15259;DHT22;34462;51.368;12.364;2024-03-06T07:51:05;4.10;99.90
15259;DHT22;34462;51.368;12.364;2024-03-06T07:53:35;4.30;99.90
15259;DHT22;34462;51.368;12.364;2024-03-06T07:56:04;4.10;99.90
15259;DHT22;34462;51.368;12.364;2024-03-06T07:58:33;4.50;99.90
15259;DHT22;34462;51.368;12.364;2024-03-06T08:01:01;4.50;99.90
15259;DHT22;34462;51.368;12.364;2024-03-06T08:03:30;4.50;99.90
15259;DHT22;34462;51.368;12.364;2024-03-06T08:06:00;4.60;99.90
15259;DHT22;34462;51.368;12.364;2024-03-06T08:08:28;4.70;99.90
15259;DHT22;34462;51.368;12.364;2024-03-06T08:11:05;4.80;99.90
15259;DHT22;34462;51.368;12.364;2024-03-06T08:13:33;5.00;99.90
15259;DHT22;34462;51.368;12.364;2024-03-06T08:16:02;5.10;99.90
15259;DHT22;34462;51.368;12.364;2024-03-06T08:18:33;5.20;99.90
15259;DHT22;34462;51.368;12.364;2024-03-06T08:21:02;5.40;99.90
15259;DHT22;34462;51.368;12.364;2024-03-06T08:23:32;5.50;99.90
15259;DHT22;34462;51.368;12.364;2024-03-06T08:26:01;5.40;99.90
15259;DHT22;34462;51.368;12.364;2024-03-06T08:28:31;5.40;99.90
15259;DHT22;34462;51.368;12.364;2024-03-06T08:31:00;5.50;99.90
15259;DHT22;34462;51.368;12.364;2024-03-06T08:33:30;5.50;99.90
15259;DHT22;34462;51.368;12.364;2024-03-06T08:35:58;5.60;99.90
15259;DHT22;34462;51.368;12.364;2024-03-06T08:38:27;5.70;99.90
15259;DHT22;34462;51.368;12.364;2024-03-06T08:40:55;5.70;99.90
15259;DHT22;34462;51.368;12.364;2024-03-06T08:43:23;5.70;99.90
15259;DHT22;34462;51.368;12.364;2024-03-06T08:45:54;5.70;99.90
15259;DHT22;34462;51.368;12.364;2024-03-06T08:48:22;5.80;99.90
15259;DHT22;34462;51.368;12.364;2024-03-06T08:50:51;5.90;99.90
15259;DHT22;34462;51.368;12.364;2024-03-06T08:53:19;6.00;99.90
15259;DHT22;34462;51.368;12.364;2024-03-06T08:55:50;5.90;99.90
15259;DHT22;34462;51.368;12.364;2024-03-06T08:58:18;5.70;99.90
15259;DHT22;34462;51.368;12.364;2024-03-06T09:00:47;5.70;99.90
15259;DHT22;34462;51.368;12.364;2024-03-06T09:03:17;5.70;99.90
15259;DHT22;34462;51.368;12.364;2024-03-06T09:05:46;5.80;99.90
15259;DHT22;34462;51.368;12.364;2024-03-06T09:08:17;5.90;99.90
15259;DHT22;34462;51.368;12.364;2024-03-06T09:10:45;5.90;99.90
15259;DHT22;34462;51.368;12.364;2024-03-06T09:13:14;5.90;99.90
15259;DHT22;34462;51.368;12.364;2024-03-06T09:15:42;6.00;99.90
15259;DHT22;34462;51.368;12.364;2024-03-06T09:18:11;5.90;99.90
15259;DHT22;34462;51.368;12.364;2024-03-06T09:20:40;6.10;99.90
15259;DHT22;34462;51.368;12.364;2024-03-06T09:23:10;6.20;99.90
15259;DHT22;34462;51.368;12.364;2024-03-06T09:25:38;6.40;99.90
15259;DHT22;34462;51.368;12.364;2024-03-06T09:28:07;6.40;99.90
15259;DHT22;34462;51.368;12.364;2024-03-06T09:30:35;6.50;99.90
15259;DHT22;34462;51.368;12.364;2024-03-06T09:33:04;6.60;99.90
15259;DHT22;34462;51.368;12.364;2024-03-06T09:35:32;6.80;99.90
15259;DHT22;34462;51.368;12.364;2024-03-06T09:38:05;6.80;99.90
15259;DHT22;34462;51.368;12.364;2024-03-06T09:40:34;6.90;99.90
15259;DHT22;34462;51.368;12.364;2024-03-06T09:43:03;7.00;99.90
15259;DHT22;34462;51.368;12.364;2024-03-06T09:45:31;7.10;99.90
15259;DHT22;34462;51.368;12.364;2024-03-06T09:48:00;7.20;99.90
15259;DHT22;34462;51.368;12.364;2024-03-06T09:50:29;7.20;99.90
15259;DHT22;34462;51.368;12.364;2024-03-06T09:53:10;7.10;99.90
15259;DHT22;34462;51.368;12.364;2024-03-06T09:55:42;7.30;99.90
15259;DHT22;34462;51.368;12.364;2024-03-06T09:58:12;7.40;99.90
15259;DHT22;34462;51.368;12.364;2024-03-06T10:00:41;7.60;99.90
15259;DHT22;34462;51.368;12.364;2024-03-06T10:03:11;7.50;99.90
15259;DHT22;34462;51.368;12.364;2024-03-06T10:05:40;7.80;99.90
15259;DHT22;34462;51.368;12.364;2024-03-06T10:08:11;7.80;99.90
15259;DHT22;34462;51.368;12.364;2024-03-06T10:10:43;7.80;99.90
15259;DHT22;34462;51.368;12.364;2024-03-06T10:13:13;7.80;99.90
15259;DHT22;34462;51.368;12.364;2024-03-06T10:15:57;7.90;99.90
15259;DHT22;34462;51.368;12.364;2024-03-06T10:18:28;7.90;99.90
15259;DHT22;34462;51.368;12.364;2024-03-06T10:20:57;7.90;99.90
15259;DHT22;34462;51.368;12.364;2024-03-06T10:23:28;8.00;99.90
15259;DHT22;34462;51.368;12.364;2024-03-06T10:25:57;8.10;99.90
15259;DHT22;34462;51.368;12.364;2024-03-06T10:28:26;8.20;99.90
15259;DHT22;34462;51.368;12.364;2024-03-06T10:31:03;8.30;99.90
15259;DHT22;34462;51.368;12.364;2024-03-06T10:33:34;8.50;99.90
15259;DHT22;34462;51.368;12.364;2024-03-06T10:36:05;8.60;99.90
15259;DHT22;34462;51.368;12.364;2024-03-06T10:38:44;8.60;99.90
15259;DHT22;34462;51.368;12.364;2024-03-06T10:41:15;8.70;99.90
15259;DHT22;34462;51.368;12.364;2024-03-06T10:43:53;8.80;99.90
15259;DHT22;34462;51.368;12.364;2024-03-06T10:46:24;8.80;99.90
15259;DHT22;34462;51.368;12.364;2024-03-06T10:48:59;8.80;99.90
15259;DHT22;34462;51.368;12.364;2024-03-06T10:51:30;8.80;99.90
15259;DHT22;34462;51.368;12.364;2024-03-06T10:54:01;8.70;99.90
15259;DHT22;34462;51.368;12.364;2024-03-06T10:56:30;8.70;99.90
15259;DHT22;34462;51.368;12.364;2024-03-06T10:59:00;8.70;99.90
15259;DHT22;34462;51.368;12.364;2024-03-06T11:01:30;8.80;99.90
15259;DHT22;34462;51.368;12.364;2024-03-06T11:04:00;8.60;99.90
15259;DHT22;34462;51.368;12.364;2024-03-06T11:06:31;8.50;99.90
15259;DHT22;34462;51.368;12.364;2024-03-06T11:09:01;8.50;99.90
15259;DHT22;34462;51.368;12.364;2024-03-06T11:11:30;8.40;99.90
15259;DHT22;34462;51.368;12.364;2024-03-06T11:14:00;8.40;99.90
15259;DHT22;34462;51.368;12.364;2024-03-06T11:16:31;8.40;99.90
15259;DHT22;34462;51.368;12.364;2024-03-06T11:19:08;8.50;99.90
15259;DHT22;34462;51.368;12.364;2024-03-06T11:21:45;8.80;99.90
15259;DHT22;34462;51.368;12.364;2024-03-06T11:24:18;8.90;99.90
15259;DHT22;34462;51.368;12.364;2024-03-06T11:26:49;9.20;99.90
15259;DHT22;34462;51.368;12.364;2024-03-06T11:29:23;9.20;99.90
15259;DHT22;34462;51.368;12.364;2024-03-06T11:32:05;9.20;99.90
15259;DHT22;34462;51.368;12.364;2024-03-06T11:34:36;9.30;99.90
15259;DHT22;34462;51.368;12.364;2024-03-06T11:37:06;9.50;99.90
15259;DHT22;34462;51.368;12.364;2024-03-06T11:44:54;10.20;99.90
15259;DHT22;34462;51.368;12.364;2024-03-06T11:47:24;10.20;99.90
15259;DHT22;34462;51.368;12.364;2024-03-06T11:49:53;10.00;99.90
15259;DHT22;34462;51.368;12.364;2024-03-06T11:52:22;9.60;99.90
15259;DHT22;34462;51.368;12.364;2024-03-06T11:54:52;9.40;99.90
15259;DHT22;34462;51.368;12.364;2024-03-06T11:57:21;9.30;99.90
15259;DHT22;34462;51.368;12.364;2024-03-06T11:59:52;9.30;99.90
15259;DHT22;34462;51.368;12.364;2024-03-06T12:02:24;9.20;99.90
15259;DHT22;34462;51.368;12.364;2024-03-06T12:04:53;9.20;99.90
15259;DHT22;34462;51.368;12.364;2024-03-06T12:07:21;9.10;99.90
15259;DHT22;34462;51.368;12.364;2024-03-06T12:09:51;9.20;99.90
15259;DHT22;34462;51.368;12.364;2024-03-06T12:12:22;9.50;99.90
15259;DHT22;34462;51.368;12.364;2024-03-06T12:14:58;9.60;99.90
15259;DHT22;34462;51.368;12.364;2024-03-06T12:17:27;9.70;99.90
15259;DHT22;34462;51.368;12.364;2024-03-06T12:19:57;9.90;99.90
15259;DHT22;34462;51.368;12.364;2024-03-06T12:22:27;10.00;99.90
15259;DHT22;34462;51.368;12.364;2024-03-06T12:25:00;10.00;99.90
15259;DHT22;34462;51.368;12.364;2024-03-06T12:27:31;9.80;99.90
15259;DHT22;34462;51.368;12.364;2024-03-06T12:30:09;9.60;99.90
15259;DHT22;34462;51.368;12.364;2024-03-06T12:32:39;9.60;99.90
15259;DHT22;34462;51.368;12.364;2024-03-06T12:35:08;9.60;99.90
15259;DHT22;34462;51.368;12.364;2024-03-06T12:37:37;9.50;99.90
15259;DHT22;34462;51.368;12.364;2024-03-06T12:40:08;9.60;99.90
15259;DHT22;34462;51.368;12.364;2024-03-06T12:42:40;9.60;99.90
15259;DHT22;34462;51.368;12.364;2024-03-06T12:45:09;9.70;99.90
15259;DHT22;34462;51.368;12.364;2024-03-06T12:47:37;9.80;99.90
15259;DHT22;34462;51.368;12.364;2024-03-06T12:50:06;10.20;99.90
15259;DHT22;34462;51.368;12.364;2024-03-06T12:52:35;10.50;99.90
15259;DHT22;34462;51.368;12.364;2024-03-06T12:55:04;10.60;99.90
15259;DHT22;34462;51.368;12.364;2024-03-06T12:57:35;10.20;99.90
15259;DHT22;34462;51.368;12.364;2024-03-06T13:00:04;10.00;99.90
15259;DHT22;34462;51.368;12.364;2024-03-06T13:02:42;9.80;99.90
15259;DHT22;34462;51.368;12.364;2024-03-06T13:05:12;9.80;99.90
15259;DHT22;34462;51.368;12.364;2024-03-06T13:07:42;9.90;99.90
15259;DHT22;34462;51.368;12.364;2024-03-06T13:10:12;9.70;99.90
15259;DHT22;34462;51.368;12.364;2024-03-06T13:12:41;9.60;99.90
15259;DHT22;34462;51.368;12.364;2024-03-06T13:15:09;9.50;99.90
15259;DHT22;34462;51.368;12.364;2024-03-06T13:17:38;9.60;99.90
15259;DHT22;34462;51.368;12.364;2024-03-06T13:20:08;9.70;99.90
15259;DHT22;34462;51.368;12.364;2024-03-06T13:22:38;9.60;99.90
15259;DHT22;34462;51.368;12.364;2024-03-06T13:25:07;9.60;99.90
15259;DHT22;34462;51.368;12.364;2024-03-06T13:27:37;9.50;99.90
15259;DHT22;34462;51.368;12.364;2024-03-06T13:30:07;9.60;99.90
15259;DHT22;34462;51.368;12.364;2024-03-06T13:32:36;9.50;99.90
15259;DHT22;34462;51.368;12.364;2024-03-06T13:35:05;9.40;99.90
15259;DHT22;34462;51.368;12.364;2024-03-06T13:37:36;9.50;99.90
15259;DHT22;34462;51.368;12.364;2024-03-06T13:40:05;9.50;99.90
15259;DHT22;34462;51.368;12.364;2024-03-06T13:42:37;9.50;99.90
15259;DHT22;34462;51.368;12.364;2024-03-06T13:45:06;9.50;99.90
15259;DHT22;34462;51.368;12.364;2024-03-06T13:47:39;9.60;99.90
15259;DHT22;34462;51.368;12.364;2024-03-06T13:50:08;9.60;99.90
15259;DHT22;34462;51.368;12.364;2024-03-06T13:52:38;9.50;99.90
15259;DHT22;34462;51.368;12.364;2024-03-06T13:55:07;9.20;99.90
15259;DHT22;34462;51.368;12.364;2024-03-06T13:57:39;9.30;99.90
15259;DHT22;34462;51.368;12.364;2024-03-06T14:00:09;9.30;99.90
15259;DHT22;34462;51.368;12.364;2024-03-06T14:02:44;9.30;99.90
15259;DHT22;34462;51.368;12.364;2024-03-06T14:05:14;9.30;99.90
15259;DHT22;34462;51.368;12.364;2024-03-06T14:07:51;9.30;99.90
15259;DHT22;34462;51.368;12.364;2024-03-06T14:10:21;9.10;99.90
15259;DHT22;34462;51.368;12.364;2024-03-06T14:12:52;9.10;99.90
15259;DHT22;34462;51.368;12.364;2024-03-06T14:15:22;9.20;99.90
15259;DHT22;34462;51.368;12.364;2024-03-06T14:17:50;9.20;99.90
15259;DHT22;34462;51.368;12.364;2024-03-06T14:20:22;9.20;99.90
15259;DHT22;34462;51.368;12.364;2024-03-06T14:22:51;9.20;99.90
15259;DHT22;34462;51.368;12.364;2024-03-06T14:25:19;9.10;99.90
15259;DHT22;34462;51.368;12.364;2024-03-06T14:27:48;9.20;99.90
15259;DHT22;34462;51.368;12.364;2024-03-06T14:30:18;9.10;99.90
15259;DHT22;34462;51.368;12.364;2024-03-06T14:32:47;9.10;99.90
15259;DHT22;34462;51.368;12.364;2024-03-06T14:35:16;9.10;99.90
15259;DHT22;34462;51.368;12.364;2024-03-06T14:37:45;9.20;99.90
15259;DHT22;34462;51.368;12.364;2024-03-06T14:40:13;9.20;99.90
15259;DHT22;34462;51.368;12.364;2024-03-06T14:42:42;9.10;99.90
15259;DHT22;34462;51.368;12.364;2024-03-06T14:45:10;9.10;99.90
15259;DHT22;34462;51.368;12.364;2024-03-06T14:47:40;9.20;99.90
15259;DHT22;34462;51.368;12.364;2024-03-06T14:50:09;9.20;99.90
15259;DHT22;34462;51.368;12.364;2024-03-06T14:52:37;9.40;99.90
15259;DHT22;34462;51.368;12.364;2024-03-06T14:55:06;9.50;99.90
15259;DHT22;34462;51.368;12.364;2024-03-06T14:57:37;9.50;99.90
15259;DHT22;34462;51.368;12.364;2024-03-06T15:00:08;9.40;99.90
15259;DHT22;34462;51.368;12.364;2024-03-06T15:02:41;9.40;99.90
15259;DHT22;34462;51.368;12.364;2024-03-06T15:05:09;9.20;99.90
15259;DHT22;34462;51.368;12.364;2024-03-06T15:07:39;9.20;99.90
15259;DHT22;34462;51.368;12.364;2024-03-06T15:10:08;9.10;99.90
15259;DHT22;34462;51.368;12.364;2024-03-06T15:12:37;8.90;99.90
15259;DHT22;34462;51.368;12.364;2024-03-06T15:15:06;8.90;99.90
15259;DHT22;34462;51.368;12.364;2024-03-06T15:17:35;9.00;99.90
15259;DHT22;34462;51.368;12.364;2024-03-06T15:20:07;9.00;99.90
15259;DHT22;34462;51.368;12.364;2024-03-06T15:22:38;9.00;99.90
15259;DHT22;34462;51.368;12.364;2024-03-06T15:25:09;9.10;99.90
15259;DHT22;34462;51.368;12.364;2024-03-06T15:27:38;9.00;99.90
15259;DHT22;34462;51.368;12.364;2024-03-06T15:30:08;9.00;99.90
15259;DHT22;34462;51.368;12.364;2024-03-06T15:32:41;9.00;99.90
15259;DHT22;34462;51.368;12.364;2024-03-06T15:35:11;9.20;99.90
15259;DHT22;34462;51.368;12.364;2024-03-06T15:37:40;9.30;99.90
15259;DHT22;34462;51.368;12.364;2024-03-06T15:40:10;9.10;99.90
15259;DHT22;34462;51.368;12.364;2024-03-06T15:42:38;8.80;99.90
15259;DHT22;34462;51.368;12.364;2024-03-06T15:45:07;8.60;99.90
15259;DHT22;34462;51.368;12.364;2024-03-06T15:47:36;8.60;99.90
15259;DHT22;34462;51.368;12.364;2024-03-06T15:50:05;8.40;99.90
15259;DHT22;34462;51.368;12.364;2024-03-06T15:52:37;8.40;99.90
15259;DHT22;34462;51.368;12.364;2024-03-06T15:55:07;8.40;99.90
15259;DHT22;34462;51.368;12.364;2024-03-06T15:57:38;8.50;99.90
15259;DHT22;34462;51.368;12.364;2024-03-06T16:00:07;8.60;99.90
15259;DHT22;34462;51.368;12.364;2024-03-06T16:02:40;8.60;99.90
15259;DHT22;34462;51.368;12.364;2024-03-06T16:05:09;8.70;99.90
15259;DHT22;34462;51.368;12.364;2024-03-06T16:07:39;8.70;99.90
15259;DHT22;34462;51.368;12.364;2024-03-06T16:10:21;8.60;99.90
15259;DHT22;34462;51.368;12.364;2024-03-06T16:12:49;8.50;99.90
15259;DHT22;34462;51.368;12.364;2024-03-06T16:15:22;8.30;99.90
15259;DHT22;34462;51.368;12.364;2024-03-06T16:17:50;8.20;99.90
15259;DHT22;34462;51.368;12.364;2024-03-06T16:20:19;8.00;99.90
15259;DHT22;34462;51.368;12.364;2024-03-06T16:22:49;7.90;99.90
15259;DHT22;34462;51.368;12.364;2024-03-06T16:25:18;7.80;99.90
15259;DHT22;34462;51.368;12.364;2024-03-06T16:27:46;7.70;99.90
15259;DHT22;34462;51.368;12.364;2024-03-06T16:30:15;7.60;99.90
15259;DHT22;34462;51.368;12.364;2024-03-06T16:32:43;7.50;99.90
15259;DHT22;34462;51.368;12.364;2024-03-06T16:35:11;7.40;99.90
15259;DHT22;34462;51.368;12.364;2024-03-06T16:37:40;7.30;99.90
15259;DHT22;34462;51.368;12.364;2024-03-06T16:40:10;7.30;99.90